createdAt,value
2017-04-01T00:00:53.949Z,23.6
2017-04-01T00:02:03.910Z,23.58
2017-04-01T00:03:26.578Z,23.58
2017-04-01T00:04:36.468Z,23.58
2017-04-01T00:05:46.121Z,23.58
2017-04-01T00:06:56.042Z,23.55
2017-04-01T00:08:06.283Z,23.6
2017-04-01T00:09:16.545Z,23.6
2017-04-01T00:10:26.514Z,23.6
2017-04-01T00:11:36.453Z,23.6
2017-04-01T00:12:46.393Z,23.58
2017-04-01T00:13:56.811Z,23.58
2017-04-01T00:15:06.734Z,23.55
2017-04-01T00:16:16.667Z,23.6
2017-04-01T00:17:26.619Z,23.54
2017-04-01T00:18:36.892Z,23.6
2017-04-01T00:19:47.546Z,23.53
2017-04-01T00:20:57.188Z,23.54
2017-04-01T00:22:07.428Z,23.54
2017-04-01T00:23:17.084Z,23.53
2017-04-01T00:24:27.340Z,23.57
2017-04-01T00:25:37.848Z,23.51
2017-04-01T00:26:48.084Z,23.58
2017-04-01T00:27:57.748Z,23.51
2017-04-01T00:29:07.391Z,23.57
2017-04-01T00:30:17.051Z,23.48
2017-04-01T00:31:27.431Z,23.55
2017-04-01T00:32:37.375Z,23.55
2017-04-01T00:33:46.374Z,23.5
2017-04-01T00:34:56.050Z,23.54
2017-04-01T00:36:06.384Z,23.55
2017-04-01T00:37:16.807Z,23.5
2017-04-01T00:38:27.044Z,23.5
2017-04-01T00:39:36.732Z,23.54
2017-04-01T00:40:46.696Z,23.54
2017-04-01T00:41:56.348Z,23.54
2017-04-01T00:43:06.441Z,23.57
2017-04-01T00:44:15.469Z,23.51
2017-04-01T00:45:24.785Z,23.5
2017-04-01T00:46:34.737Z,23.55
2017-04-01T00:47:44.346Z,23.48
2017-04-01T00:48:54.014Z,23.53
2017-04-01T00:50:04.248Z,23.51
2017-04-01T00:51:14.193Z,23.47
2017-04-01T00:52:24.169Z,23.46
2017-04-01T00:53:33.832Z,23.5
2017-04-01T00:54:43.911Z,23.5
2017-04-01T00:55:53.861Z,23.5
2017-04-01T00:57:03.797Z,23.46
2017-04-01T00:58:13.440Z,23.53
2017-04-01T00:59:23.714Z,23.53
2017-04-01T01:00:33.805Z,23.51
2017-04-01T01:01:44.064Z,23.5
2017-04-01T01:02:54.060Z,23.48
2017-04-01T01:04:04.113Z,23.55
2017-04-01T01:05:13.468Z,23.55
2017-04-01T01:06:23.455Z,23.48
2017-04-01T01:07:33.483Z,23.54
2017-04-01T01:08:43.815Z,23.54
2017-04-01T01:09:53.975Z,23.43
2017-04-01T01:11:03.954Z,23.5
2017-04-01T01:12:14.479Z,23.47
2017-04-01T01:13:24.450Z,23.48
2017-04-01T01:14:34.368Z,23.51
2017-04-01T01:15:44.304Z,23.51
2017-04-01T01:16:54.539Z,23.4
2017-04-01T01:18:04.860Z,23.4
2017-04-01T01:19:14.195Z,23.47
2017-04-01T01:20:24.457Z,23.46
2017-04-01T01:21:34.715Z,23.4
2017-04-01T01:22:44.950Z,23.51
2017-04-01T01:23:55.309Z,23.43
2017-04-01T01:25:05.546Z,23.48
2017-04-01T01:26:15.465Z,23.48
2017-04-01T01:27:25.380Z,23.43
2017-04-01T01:28:34.987Z,23.39
2017-04-01T01:29:45.570Z,23.43
2017-04-01T01:30:55.813Z,23.42
2017-04-01T01:32:06.050Z,23.42
2017-04-01T01:33:15.956Z,23.47
2017-04-01T01:34:26.177Z,23.42
2017-04-01T01:35:36.693Z,23.47
2017-04-01T01:36:46.625Z,23.43
2017-04-01T01:37:56.220Z,23.47
2017-04-01T01:39:06.131Z,23.4
2017-04-01T01:40:16.064Z,23.47
2017-04-01T01:41:26.621Z,23.42
2017-04-01T01:42:36.282Z,23.39
2017-04-01T01:43:46.187Z,23.43
2017-04-01T01:44:56.113Z,23.47
2017-04-01T01:46:05.716Z,23.43
2017-04-01T01:47:15.664Z,23.43
2017-04-01T01:48:25.883Z,23.43
2017-04-01T01:49:35.838Z,23.43
2017-04-01T01:50:46.074Z,23.46
2017-04-01T01:51:56.013Z,23.36
2017-04-01T01:53:05.473Z,23.4
2017-04-01T01:54:15.072Z,23.43
2017-04-01T01:55:24.981Z,23.35
2017-04-01T01:56:34.632Z,23.39
2017-04-01T01:57:44.259Z,23.38
2017-04-01T01:58:54.289Z,23.38
2017-04-01T02:00:04.521Z,23.38
2017-04-01T02:01:14.464Z,23.36
2017-04-01T02:02:24.702Z,23.38
2017-04-01T02:03:33.685Z,23.4
2017-04-01T02:04:43.924Z,23.39
2017-04-01T02:05:54.150Z,23.35
2017-04-01T02:07:04.410Z,23.35
2017-04-01T02:08:14.365Z,23.4
2017-04-01T02:09:24.283Z,23.39
2017-04-01T02:10:34.438Z,23.38
2017-04-01T02:11:43.744Z,23.35
2017-04-01T02:12:53.652Z,23.39
2017-04-01T02:14:03.327Z,23.38
2017-04-01T02:15:12.936Z,23.33
2017-04-01T02:16:22.707Z,23.38
2017-04-01T02:17:32.623Z,23.39
2017-04-01T02:18:42.532Z,23.42
2017-04-01T02:19:52.437Z,23.43
2017-04-01T02:21:02.661Z,23.4
2017-04-01T02:22:12.752Z,23.42
2017-04-01T02:23:22.678Z,23.33
2017-04-01T02:24:32.602Z,23.32
2017-04-01T02:25:42.825Z,23.4
2017-04-01T02:26:52.806Z,23.28
2017-04-01T02:28:03.244Z,23.39
2017-04-01T02:29:13.161Z,23.4
2017-04-01T02:30:22.793Z,23.4
2017-04-01T02:31:32.707Z,23.31
2017-04-01T02:32:42.664Z,23.38
2017-04-01T02:33:52.360Z,23.38
2017-04-01T02:35:02.589Z,23.39
2017-04-01T02:36:12.536Z,23.35
2017-04-01T02:37:22.450Z,23.28
2017-04-01T02:38:32.423Z,23.27
2017-04-01T02:39:42.331Z,23.35
2017-04-01T02:40:51.938Z,23.28
2017-04-01T02:42:01.852Z,23.33
2017-04-01T02:43:12.068Z,23.35
2017-04-01T02:44:21.385Z,23.33
2017-04-01T02:45:31.769Z,23.31
2017-04-01T02:46:41.695Z,23.33
2017-04-01T02:47:51.949Z,23.32
2017-04-01T02:49:01.868Z,23.32
2017-04-01T02:50:11.487Z,23.25
2017-04-01T02:51:21.698Z,23.32
2017-04-01T02:52:32.007Z,23.33
2017-04-01T02:53:41.618Z,23.25
2017-04-01T02:54:51.535Z,23.23
2017-04-01T02:56:01.470Z,23.31
2017-04-01T02:57:11.683Z,23.23
2017-04-01T02:58:21.902Z,23.32
2017-04-01T02:59:31.820Z,23.32
2017-04-01T03:00:41.425Z,23.2
2017-04-01T03:01:51.647Z,23.22
2017-04-01T03:03:01.895Z,23.17
2017-04-01T03:04:11.823Z,23.23
2017-04-01T03:05:21.731Z,23.27
2017-04-01T03:06:31.649Z,23.23
2017-04-01T03:07:41.265Z,23.2
2017-04-01T03:08:51.193Z,23.2
2017-04-01T03:10:00.491Z,23.28
2017-04-01T03:11:10.129Z,23.22
2017-04-01T03:12:20.346Z,23.2
2017-04-01T03:13:30.592Z,23.23
2017-04-01T03:14:41.063Z,23.25
2017-04-01T03:15:51.274Z,23.28
2017-04-01T03:17:01.985Z,23.2
2017-04-01T03:18:12.201Z,23.27
2017-04-01T03:19:21.530Z,23.16
2017-04-01T03:20:31.898Z,23.2
2017-04-01T03:21:42.110Z,23.25
2017-04-01T03:22:51.728Z,23.19
2017-04-01T03:24:01.364Z,23.16
2017-04-01T03:25:11.290Z,23.16
2017-04-01T03:26:21.160Z,23.16
2017-04-01T03:27:31.489Z,23.28
2017-04-01T03:28:41.396Z,23.17
2017-04-01T03:29:51.613Z,23.16
2017-04-01T03:31:01.559Z,23.12
2017-04-01T03:32:12.087Z,23.19
2017-04-01T03:33:21.758Z,23.17
2017-04-01T03:34:31.382Z,23.22
2017-04-01T03:35:41.324Z,23.22
2017-04-01T03:36:51.248Z,23.23
2017-04-01T03:38:00.999Z,23.16
2017-04-01T03:39:11.229Z,23.23
2017-04-01T03:40:20.516Z,23.16
2017-04-01T03:41:29.840Z,23.19
2017-04-01T03:42:39.751Z,23.22
2017-04-01T03:43:49.828Z,23.22
2017-04-01T03:45:00.057Z,23.23
2017-04-01T03:46:09.988Z,23.2
2017-04-01T03:47:19.912Z,23.19
2017-04-01T03:48:29.223Z,23.27
2017-04-01T03:49:39.603Z,23.22
2017-04-01T03:50:49.327Z,23.22
2017-04-01T03:51:58.964Z,23.25
2017-04-01T03:53:08.578Z,23.28
2017-04-01T03:54:17.904Z,23.25
2017-04-01T03:55:28.072Z,23.25
2017-04-01T03:56:38.281Z,23.22
2017-04-01T03:57:48.199Z,23.19
2017-04-01T03:58:58.273Z,23.19
2017-04-01T04:00:08.208Z,23.19
2017-04-01T04:01:18.610Z,23.22
2017-04-01T04:02:28.216Z,23.1
2017-04-01T04:03:38.154Z,23.23
2017-04-01T04:04:47.449Z,23.16
2017-04-01T04:05:57.353Z,23.15
2017-04-01T04:07:07.527Z,23.15
2017-04-01T04:08:17.510Z,23.19
2017-04-01T04:09:27.415Z,23.17
2017-04-01T04:10:37.619Z,23.19
2017-04-01T04:11:47.320Z,23.15
2017-04-01T04:12:57.111Z,23.2
2017-04-01T04:14:06.765Z,23.1
2017-04-01T04:15:17.015Z,23.15
2017-04-01T04:16:26.941Z,23.16
2017-04-01T04:17:37.268Z,23.1
2017-04-01T04:18:47.106Z,23.2
2017-04-01T04:19:57.043Z,23.13
2017-04-01T04:21:06.655Z,23.17
2017-04-01T04:22:16.566Z,23.13
2017-04-01T04:23:26.781Z,23.15
2017-04-01T04:24:37.745Z,23.07
2017-04-01T04:25:47.963Z,23.17
2017-04-01T04:26:57.943Z,23.1
2017-04-01T04:28:07.240Z,23.19
2017-04-01T04:29:17.156Z,23.07
2017-04-01T04:30:27.521Z,23.05
2017-04-01T04:31:37.138Z,23.17
2017-04-01T04:32:47.350Z,23.1
2017-04-01T04:33:56.957Z,23.07
2017-04-01T04:35:06.962Z,23.13
2017-04-01T04:36:17.135Z,23.07
2017-04-01T04:37:26.448Z,23.12
2017-04-01T04:38:36.386Z,23.13
2017-04-01T04:39:46.309Z,23.15
2017-04-01T04:40:56.526Z,23.07
2017-04-01T04:42:06.260Z,23.16
2017-04-01T04:43:15.861Z,23.1
2017-04-01T04:44:25.493Z,23.09
2017-04-01T04:45:35.726Z,23.07
2017-04-01T04:46:45.627Z,23.02
2017-04-01T04:47:55.785Z,23.07
2017-04-01T04:49:05.408Z,23.13
2017-04-01T04:50:15.643Z,23.02
2017-04-01T04:51:25.629Z,23.1
2017-04-01T04:52:35.233Z,23.13
2017-04-01T04:53:45.285Z,23.02
2017-04-01T04:54:54.274Z,23.09
2017-04-01T04:56:03.587Z,23.1
2017-04-01T04:57:13.496Z,23.04
2017-04-01T04:58:23.416Z,23.1
2017-04-01T04:59:33.773Z,23.12
2017-04-01T05:00:43.681Z,23
2017-04-01T05:01:53.601Z,23.01
2017-04-01T05:03:03.225Z,22.98
2017-04-01T05:04:12.510Z,23.05
2017-04-01T05:05:22.868Z,23.04
2017-04-01T05:06:32.831Z,23.09
2017-04-01T05:07:43.157Z,23.07
2017-04-01T05:08:53.101Z,23.02
2017-04-01T05:10:02.388Z,23.05
2017-04-01T05:11:12.487Z,23.02
2017-04-01T05:12:22.411Z,23.07
2017-04-01T05:13:32.368Z,23.02
2017-04-01T05:14:41.699Z,23.07
2017-04-01T05:15:51.636Z,23.04
2017-04-01T05:17:01.948Z,23.05
2017-04-01T05:18:11.575Z,23.05
2017-04-01T05:19:21.491Z,23.05
2017-04-01T05:20:31.095Z,23.02
2017-04-01T05:21:41.078Z,23.04
2017-04-01T05:22:51.451Z,23.01
2017-04-01T05:24:01.669Z,23.05
2017-04-01T05:25:11.578Z,23.01
2017-04-01T05:26:21.827Z,23.07
2017-04-01T05:27:31.422Z,23.09
2017-04-01T05:28:41.625Z,23.09
2017-04-01T05:29:51.587Z,23.05
2017-04-01T05:31:01.710Z,23.1
2017-04-01T05:32:11.620Z,23.05
2017-04-01T05:33:21.223Z,23.05
2017-04-01T05:34:30.974Z,23.15
2017-04-01T05:35:40.593Z,23.15
2017-04-01T05:36:50.819Z,23.07
2017-04-01T05:38:00.721Z,23.15
2017-04-01T05:39:10.636Z,23.19
2017-04-01T05:40:20.848Z,23.15
2017-04-01T05:41:30.757Z,23.1
2017-04-01T05:42:40.972Z,23.15
2017-04-01T05:43:50.886Z,23.2
2017-04-01T05:45:00.818Z,23.17
2017-04-01T05:46:10.781Z,23.15
2017-04-01T05:47:20.400Z,23.13
2017-04-01T05:48:30.616Z,23.19
2017-04-01T05:49:40.825Z,23.19
2017-04-01T05:50:51.037Z,23.19
2017-04-01T05:52:01.351Z,23.22
2017-04-01T05:53:11.569Z,23.17
2017-04-01T05:54:21.486Z,23.27
2017-04-01T05:55:31.397Z,23.16
2017-04-01T05:56:41.312Z,23.16
2017-04-01T05:57:50.767Z,23.16
2017-04-01T05:59:00.988Z,23.28
2017-04-01T06:00:11.198Z,23.22
2017-04-01T06:01:20.797Z,23.19
2017-04-01T06:02:30.404Z,23.28
2017-04-01T06:03:40.014Z,23.22
2017-04-01T06:04:49.626Z,23.27
2017-04-01T06:05:59.845Z,23.31
2017-04-01T06:07:09.450Z,23.25
2017-04-01T06:08:19.358Z,23.32
2017-04-01T06:09:28.503Z,23.28
2017-04-01T06:10:38.437Z,23.2
2017-04-01T06:11:48.655Z,23.23
2017-04-01T06:12:58.600Z,23.23
2017-04-01T06:14:08.501Z,23.33
2017-04-01T06:15:18.756Z,23.23
2017-04-01T06:16:28.995Z,23.22
2017-04-01T06:17:38.619Z,23.35
2017-04-01T06:18:48.535Z,23.35
2017-04-01T06:19:58.447Z,23.35
2017-04-01T06:21:08.149Z,23.38
2017-04-01T06:22:18.368Z,23.46
2017-04-01T06:23:28.273Z,23.4
2017-04-01T06:24:38.190Z,23.4
2017-04-01T06:25:48.118Z,23.5
2017-04-01T06:26:58.703Z,23.53
2017-04-01T06:28:08.927Z,23.47
2017-04-01T06:29:18.563Z,23.5
2017-04-01T06:30:28.500Z,23.48
2017-04-01T06:31:38.731Z,23.46
2017-04-01T06:32:48.211Z,23.46
2017-04-01T06:33:58.204Z,23.53
2017-04-01T06:35:07.528Z,23.54
2017-04-01T06:36:17.748Z,23.53
2017-04-01T06:37:27.706Z,23.51
2017-04-01T06:38:38.080Z,23.5
2017-04-01T06:39:48.291Z,23.5
2017-04-01T06:40:58.510Z,23.53
2017-04-01T06:42:08.741Z,23.53
2017-04-01T06:43:17.751Z,23.51
2017-04-01T06:44:28.112Z,23.57
2017-04-01T06:45:38.025Z,23.58
2017-04-01T06:46:47.014Z,23.61
2017-04-01T06:47:56.945Z,23.55
2017-04-01T06:49:06.865Z,23.63
2017-04-01T06:50:16.614Z,23.66
2017-04-01T06:51:26.906Z,23.57
2017-04-01T06:52:36.557Z,23.63
2017-04-01T06:53:46.510Z,23.6
2017-04-01T06:54:55.531Z,23.63
2017-04-01T06:56:05.400Z,23.61
2017-04-01T06:57:15.018Z,23.68
2017-04-01T06:58:25.254Z,23.66
2017-04-01T06:59:34.893Z,23.66
2017-04-01T07:00:44.830Z,23.63
2017-04-01T07:01:55.310Z,23.66
2017-04-01T07:03:05.545Z,23.66
2017-04-01T07:04:15.157Z,23.72
2017-04-01T07:05:25.066Z,23.75
2017-04-01T07:06:35.013Z,23.7
2017-04-01T07:07:44.787Z,23.69
2017-04-01T07:08:54.735Z,23.78
2017-04-01T07:10:04.374Z,23.72
2017-04-01T07:11:14.311Z,23.65
2017-04-01T07:12:24.240Z,23.75
2017-04-01T07:13:34.485Z,23.79
2017-04-01T07:14:44.422Z,23.75
2017-04-01T07:15:54.037Z,23.72
2017-04-01T07:17:03.963Z,23.65
2017-04-01T07:18:13.592Z,23.68
2017-04-01T07:19:23.599Z,23.85
2017-04-01T07:20:33.544Z,23.75
2017-04-01T07:21:43.157Z,23.8
2017-04-01T07:22:53.083Z,23.8
2017-04-01T07:24:03.015Z,23.76
2017-04-01T07:25:12.781Z,23.87
2017-04-01T07:26:22.394Z,23.78
2017-04-01T07:27:32.631Z,23.87
2017-04-01T07:28:42.550Z,23.87
2017-04-01T07:29:52.785Z,23.78
2017-04-01T07:31:02.859Z,23.85
2017-04-01T07:32:13.094Z,23.78
2017-04-01T07:33:23.018Z,23.79
2017-04-01T07:34:33.297Z,23.83
2017-04-01T07:35:42.619Z,23.7
2017-04-01T07:36:52.627Z,23.78
2017-04-01T07:38:02.539Z,23.87
2017-04-01T07:39:12.160Z,23.75
2017-04-01T07:40:21.777Z,23.88
2017-04-01T07:41:31.407Z,23.88
2017-04-01T07:42:42.004Z,23.93
2017-04-01T07:43:51.952Z,23.88
2017-04-01T07:45:02.180Z,24.06
2017-04-01T07:46:12.115Z,24.1
2017-04-01T07:47:23.028Z,24.09
2017-04-01T07:48:33.561Z,24.05
2017-04-01T07:49:43.472Z,24.2
2017-04-01T07:50:53.691Z,24.08
2017-04-01T07:52:04.310Z,24.25
2017-04-01T07:53:13.978Z,24.31
2017-04-01T07:54:24.152Z,24.3
2017-04-01T07:55:33.925Z,24.4
2017-04-01T07:56:43.123Z,24.37
2017-04-01T07:57:52.739Z,24.47
2017-04-01T07:59:02.686Z,24.31
2017-04-01T08:00:12.932Z,24.31
2017-04-01T08:01:22.867Z,24.49
2017-04-01T08:02:33.120Z,24.42
2017-04-01T08:03:43.035Z,24.47
2017-04-01T08:04:52.649Z,24.49
2017-04-01T08:06:03.062Z,24.5
2017-04-01T08:07:12.372Z,24.47
2017-04-01T08:08:22.309Z,24.5
2017-04-01T08:09:31.931Z,24.55
2017-04-01T08:10:41.859Z,24.58
2017-04-01T08:11:51.964Z,24.52
2017-04-01T08:13:01.924Z,24.65
2017-04-01T08:14:11.855Z,24.67
2017-04-01T08:15:21.468Z,24.65
2017-04-01T08:16:31.407Z,24.68
2017-04-01T08:17:41.569Z,24.68
2017-04-01T08:18:51.182Z,24.64
2017-04-01T08:20:00.491Z,24.68
2017-04-01T08:21:10.102Z,24.69
2017-04-01T08:22:20.315Z,24.73
2017-04-01T08:23:30.179Z,24.71
2017-04-01T08:24:39.218Z,24.69
2017-04-01T08:25:49.132Z,24.71
2017-04-01T08:26:59.399Z,24.71
2017-04-01T08:28:09.318Z,24.71
2017-04-01T08:29:19.416Z,24.73
2017-04-01T08:30:29.355Z,24.76
2017-04-01T08:31:38.654Z,24.77
2017-04-01T08:32:48.269Z,24.76
2017-04-01T08:33:58.266Z,24.71
2017-04-01T08:35:08.743Z,24.71
2017-04-01T08:36:18.690Z,24.76
2017-04-01T08:37:28.603Z,24.67
2017-04-01T08:38:38.551Z,24.67
2017-04-01T08:39:48.815Z,24.69
2017-04-01T08:40:58.866Z,24.68
2017-04-01T08:42:08.486Z,24.68
2017-04-01T08:43:19.176Z,24.71
2017-04-01T08:44:29.416Z,24.69
2017-04-01T08:45:39.342Z,24.69
2017-04-01T08:46:50.047Z,24.73
2017-04-01T08:47:59.952Z,24.76
2017-04-01T08:49:09.581Z,24.78
2017-04-01T08:50:18.902Z,24.77
2017-04-01T08:51:29.187Z,24.78
2017-04-01T08:52:39.416Z,24.78
2017-04-01T08:53:49.652Z,24.77
2017-04-01T08:54:59.284Z,24.78
2017-04-01T08:56:09.224Z,24.81
2017-04-01T08:57:19.474Z,24.78
2017-04-01T08:58:30.819Z,24.84
2017-04-01T08:59:40.737Z,24.81
2017-04-01T09:00:50.957Z,24.88
2017-04-01T09:02:01.197Z,24.83
2017-04-01T09:03:10.509Z,24.76
2017-04-01T09:04:20.769Z,24.88
2017-04-01T09:05:30.377Z,24.83
2017-04-01T09:06:40.293Z,24.77
2017-04-01T09:07:49.903Z,24.76
2017-04-01T09:08:59.861Z,24.8
2017-04-01T09:10:10.237Z,24.76
2017-04-01T09:11:19.854Z,24.8
2017-04-01T09:12:30.022Z,24.81
2017-04-01T09:13:40.477Z,24.87
2017-04-01T09:14:51.849Z,24.83
2017-04-01T09:16:02.182Z,24.77
2017-04-01T09:17:11.805Z,24.78
2017-04-01T09:18:22.036Z,24.81
2017-04-01T09:19:31.992Z,24.88
2017-04-01T09:20:41.959Z,24.8
2017-04-01T09:21:52.685Z,24.88
2017-04-01T09:23:02.025Z,24.96
2017-04-01T09:24:11.641Z,24.88
2017-04-01T09:25:21.242Z,24.9
2017-04-01T09:26:31.166Z,24.9
2017-04-01T09:27:41.467Z,24.91
2017-04-01T09:28:51.068Z,25.02
2017-04-01T09:30:01.288Z,25
2017-04-01T09:31:11.206Z,25.06
2017-04-01T09:32:20.816Z,25
2017-04-01T09:33:31.201Z,25.03
2017-04-01T09:34:41.172Z,25.02
2017-04-01T09:35:51.120Z,24.96
2017-04-01T09:37:01.338Z,25.03
2017-04-01T09:38:10.954Z,24.93
2017-04-01T09:39:21.585Z,24.88
2017-04-01T09:40:31.923Z,24.98
2017-04-01T09:41:42.148Z,24.88
2017-04-01T09:42:52.073Z,24.93
2017-04-01T09:44:01.989Z,24.84
2017-04-01T09:45:11.712Z,24.84
2017-04-01T09:46:21.957Z,24.88
2017-04-01T09:47:32.190Z,24.8
2017-04-01T09:48:42.126Z,24.81
2017-04-01T09:49:51.730Z,24.76
2017-04-01T09:51:01.804Z,24.84
2017-04-01T09:52:11.420Z,24.83
2017-04-01T09:53:21.664Z,24.83
2017-04-01T09:54:31.664Z,24.83
2017-04-01T09:55:41.603Z,24.8
2017-04-01T09:56:51.622Z,24.77
2017-04-01T09:58:01.852Z,24.77
2017-04-01T09:59:11.143Z,24.84
2017-04-01T10:00:21.073Z,24.77
2017-04-01T10:01:30.984Z,24.78
2017-04-01T10:02:41.014Z,24.78
2017-04-01T10:03:50.618Z,24.78
2017-04-01T10:05:00.534Z,24.77
2017-04-01T10:06:10.458Z,24.78
2017-04-01T10:07:20.137Z,24.81
2017-04-01T10:08:30.553Z,24.8
2017-04-01T10:09:40.189Z,24.77
2017-04-01T10:10:50.688Z,24.8
2017-04-01T10:12:00.302Z,24.76
2017-04-01T10:13:10.259Z,24.71
2017-04-01T10:14:20.336Z,24.87
2017-04-01T10:15:29.984Z,24.81
2017-04-01T10:16:39.923Z,24.9
2017-04-01T10:17:49.850Z,24.78
2017-04-01T10:18:59.802Z,24.84
2017-04-01T10:20:10.079Z,24.84
2017-04-01T10:21:20.319Z,24.84
2017-04-01T10:22:30.236Z,24.9
2017-04-01T10:23:40.450Z,24.98
2017-04-01T10:24:50.370Z,24.95
2017-04-01T10:26:00.591Z,24.93
2017-04-01T10:27:10.542Z,24.96
2017-04-01T10:28:19.846Z,24.95
2017-04-01T10:29:29.471Z,24.88
2017-04-01T10:30:39.720Z,24.96
2017-04-01T10:31:49.759Z,24.88
2017-04-01T10:32:59.682Z,24.91
2017-04-01T10:34:09.309Z,24.96
2017-04-01T10:35:18.949Z,25.02
2017-04-01T10:36:29.171Z,24.99
2017-04-01T10:37:38.938Z,24.9
2017-04-01T10:38:48.870Z,25
2017-04-01T10:39:58.206Z,24.93
2017-04-01T10:41:08.129Z,24.93
2017-04-01T10:42:18.069Z,24.99
2017-04-01T10:43:27.816Z,24.99
2017-04-01T10:44:37.427Z,24.96
2017-04-01T10:45:47.671Z,24.96
2017-04-01T10:46:57.628Z,24.99
2017-04-01T10:48:07.264Z,25.03
2017-04-01T10:49:17.671Z,25.1
2017-04-01T10:50:27.679Z,24.99
2017-04-01T10:51:37.906Z,24.95
2017-04-01T10:52:47.830Z,25.02
2017-04-01T10:53:58.060Z,25.03
2017-04-01T10:55:08.037Z,24.96
2017-04-01T10:56:17.089Z,25.03
2017-04-01T10:57:26.762Z,24.96
2017-04-01T10:58:36.468Z,24.81
2017-04-01T10:59:46.770Z,24.6
2017-04-01T11:00:57.432Z,24.46
2017-04-01T11:02:07.407Z,24.15
2017-04-01T11:03:17.080Z,23.97
2017-04-01T11:04:26.733Z,23.66
2017-04-01T11:05:36.389Z,23.48
2017-04-01T11:06:46.632Z,23.39
2017-04-01T11:07:56.549Z,23.2
2017-04-01T11:09:06.797Z,23.1
2017-04-01T11:10:16.428Z,22.86
2017-04-01T11:11:26.695Z,22.79
2017-04-01T11:12:36.356Z,22.64
2017-04-01T11:13:45.972Z,22.6
2017-04-01T11:14:55.597Z,22.7
2017-04-01T11:16:05.844Z,22.68
2017-04-01T11:17:16.117Z,22.6
2017-04-01T11:18:25.887Z,22.46
2017-04-01T11:19:35.811Z,22.45
2017-04-01T11:20:46.082Z,22.4
2017-04-01T11:21:55.840Z,22.39
2017-04-01T11:23:05.457Z,22.36
2017-04-01T11:24:15.241Z,22.27
2017-04-01T11:25:25.465Z,22.33
2017-04-01T11:26:35.715Z,22.22
2017-04-01T11:27:45.013Z,22.22
2017-04-01T11:28:54.950Z,22.18
2017-04-01T11:30:05.280Z,22.17
2017-04-01T11:31:15.529Z,22.07
2017-04-01T11:32:25.752Z,22.12
2017-04-01T11:33:35.369Z,22.1
2017-04-01T11:34:44.656Z,21.99
2017-04-01T11:35:54.816Z,21.99
2017-04-01T11:37:04.754Z,21.94
2017-04-01T11:38:14.377Z,21.91
2017-04-01T11:39:24.744Z,22.02
2017-04-01T11:40:34.824Z,21.94
2017-04-01T11:41:44.850Z,21.94
2017-04-01T11:42:55.077Z,21.86
2017-04-01T11:44:04.688Z,21.98
2017-04-01T11:45:14.645Z,21.96
2017-04-01T11:46:23.962Z,21.86
2017-04-01T11:47:34.017Z,21.84
2017-04-01T11:48:43.932Z,21.77
2017-04-01T11:49:54.146Z,21.75
2017-04-01T11:51:04.389Z,21.83
2017-04-01T11:52:14.030Z,21.8
2017-04-01T11:53:24.100Z,21.79
2017-04-01T11:54:34.023Z,21.72
2017-04-01T11:55:43.950Z,21.75
2017-04-01T11:56:53.869Z,21.79
2017-04-01T11:58:03.792Z,21.69
2017-04-01T11:59:14.390Z,21.82
2017-04-01T12:00:24.635Z,21.77
2017-04-01T12:01:34.850Z,21.79
2017-04-01T12:02:44.175Z,21.71
2017-04-01T12:03:54.415Z,21.9
2017-04-01T12:05:04.691Z,21.8
2017-04-01T12:06:14.642Z,21.86
2017-04-01T12:07:24.247Z,21.82
2017-04-01T12:08:34.180Z,21.92
2017-04-01T12:09:43.520Z,21.92
2017-04-01T12:10:54.197Z,21.96
2017-04-01T12:12:04.422Z,21.91
2017-04-01T12:13:14.323Z,21.92
2017-04-01T12:14:23.947Z,21.86
2017-04-01T12:15:34.190Z,21.91
2017-04-01T12:16:45.036Z,21.96
2017-04-01T12:17:54.961Z,21.9
2017-04-01T12:19:04.586Z,21.86
2017-04-01T12:20:14.204Z,21.77
2017-04-01T12:21:23.524Z,21.82
2017-04-01T12:22:33.574Z,21.83
2017-04-01T12:23:42.920Z,21.84
2017-04-01T12:24:52.574Z,21.92
2017-04-01T12:26:02.491Z,21.88
2017-04-01T12:27:12.418Z,21.86
2017-04-01T12:28:22.316Z,21.99
2017-04-01T12:29:32.596Z,21.98
2017-04-01T12:30:42.870Z,21.88
2017-04-01T12:31:52.800Z,21.96
2017-04-01T12:33:02.401Z,21.96
2017-04-01T12:34:12.539Z,21.99
2017-04-01T12:35:22.460Z,22.03
2017-04-01T12:36:32.695Z,21.98
2017-04-01T12:37:42.593Z,21.91
2017-04-01T12:38:52.316Z,21.98
2017-04-01T12:40:02.543Z,21.98
2017-04-01T12:41:12.805Z,22
2017-04-01T12:42:22.830Z,22.03
2017-04-01T12:43:32.780Z,22.12
2017-04-01T12:44:42.440Z,22
2017-04-01T12:45:52.550Z,22.1
2017-04-01T12:47:02.793Z,22.17
2017-04-01T12:48:12.399Z,22.17
2017-04-01T12:49:22.321Z,22.2
2017-04-01T12:50:32.568Z,22.17
2017-04-01T12:51:42.273Z,22.25
2017-04-01T12:52:51.915Z,22.17
2017-04-01T12:54:01.618Z,22.22
2017-04-01T12:55:11.927Z,22.24
2017-04-01T12:56:21.539Z,22.03
2017-04-01T12:57:32.331Z,22.05
2017-04-01T12:58:41.980Z,22.06
2017-04-01T12:59:52.217Z,22.06
2017-04-01T13:01:01.229Z,22.15
2017-04-01T13:02:11.563Z,22.2
2017-04-01T13:03:21.372Z,22.2
2017-04-01T13:04:31.340Z,22.2
2017-04-01T13:05:40.967Z,22.21
2017-04-01T13:06:50.580Z,22.25
2017-04-01T13:08:00.518Z,22.2
2017-04-01T13:09:10.780Z,22.24
2017-04-01T13:10:20.106Z,22.21
2017-04-01T13:11:30.031Z,22.31
2017-04-01T13:12:39.959Z,22.24
2017-04-01T13:13:49.329Z,22.27
2017-04-01T13:14:59.563Z,22.15
2017-04-01T13:16:09.489Z,22.2
2017-04-01T13:17:19.718Z,22.21
2017-04-01T13:18:29.970Z,22.28
2017-04-01T13:19:39.610Z,22.3
2017-04-01T13:20:50.290Z,22.36
2017-04-01T13:22:00.547Z,22.39
2017-04-01T13:23:10.470Z,22.47
2017-04-01T13:24:20.382Z,22.36
2017-04-01T13:25:30.302Z,22.37
2017-04-01T13:26:40.571Z,22.39
2017-04-01T13:27:50.470Z,22.49
2017-04-01T13:29:00.076Z,22.52
2017-04-01T13:30:10.307Z,22.64
2017-04-01T13:31:20.216Z,22.49
2017-04-01T13:32:30.123Z,22.58
2017-04-01T13:33:40.058Z,22.54
2017-04-01T13:34:49.962Z,22.61
2017-04-01T13:36:00.243Z,22.6
2017-04-01T13:37:10.456Z,22.6
2017-04-01T13:38:21.540Z,22.57
2017-04-01T13:39:31.913Z,22.62
2017-04-01T13:40:41.839Z,22.57
2017-04-01T13:41:51.787Z,22.6
2017-04-01T13:43:01.739Z,22.58
2017-04-01T13:44:11.509Z,22.57
2017-04-01T13:45:21.472Z,22.54
2017-04-01T13:46:31.491Z,22.52
2017-04-01T13:47:41.742Z,22.62
2017-04-01T13:48:51.659Z,22.64
2017-04-01T13:50:00.995Z,22.51
2017-04-01T13:51:11.227Z,22.6
2017-04-01T13:52:21.133Z,22.62
2017-04-01T13:53:30.163Z,22.51
2017-04-01T13:54:39.790Z,22.55
2017-04-01T13:55:50.292Z,22.55
2017-04-01T13:57:00.840Z,22.6
2017-04-01T13:58:10.743Z,22.58
2017-04-01T13:59:20.964Z,22.46
2017-04-01T14:00:31.220Z,22.62
2017-04-01T14:01:41.132Z,22.54
2017-04-01T14:02:50.742Z,22.46
2017-04-01T14:04:00.670Z,22.46
2017-04-01T14:05:10.316Z,22.46
2017-04-01T14:06:20.886Z,22.46
2017-04-01T14:07:30.176Z,22.37
2017-04-01T14:08:40.084Z,22.37
2017-04-01T14:09:49.704Z,22.35
2017-04-01T14:10:59.305Z,22.36
2017-04-01T14:12:09.213Z,22.33
2017-04-01T14:13:18.818Z,22.27
2017-04-01T14:14:29.031Z,22.24
2017-04-01T14:15:38.339Z,22.27
2017-04-01T14:16:47.957Z,22.24
2017-04-01T14:17:57.733Z,22.27
2017-04-01T14:19:07.333Z,22.24
2017-04-01T14:20:17.545Z,22.22
2017-04-01T14:21:27.441Z,22.24
2017-04-01T14:22:38.047Z,22.28
2017-04-01T14:23:49.015Z,22.21
2017-04-01T14:24:58.725Z,22.3
2017-04-01T14:26:08.020Z,22.36
2017-04-01T14:27:17.937Z,22.22
2017-04-01T14:28:27.553Z,22.24
2017-04-01T14:29:37.796Z,22.25
2017-04-01T14:30:47.736Z,22.25
2017-04-01T14:31:57.656Z,22.27
2017-04-01T14:33:07.892Z,22.28
2017-04-01T14:34:18.333Z,22.28
2017-04-01T14:35:29.271Z,22.25
2017-04-01T14:36:39.477Z,22.2
2017-04-01T14:37:49.753Z,22.21
2017-04-01T14:39:00.343Z,22.2
2017-04-01T14:40:10.999Z,22.21
2017-04-01T14:41:22.410Z,22.21
2017-04-01T14:42:32.380Z,22.24
2017-04-01T14:43:41.950Z,22.22
2017-04-01T14:44:51.575Z,22.18
2017-04-01T14:46:01.209Z,22.21
2017-04-01T14:47:11.470Z,22.18
2017-04-01T14:48:21.405Z,22.22
2017-04-01T14:49:31.495Z,22.21
2017-04-01T14:50:40.908Z,22.22
2017-04-01T14:51:51.170Z,22.22
2017-04-01T14:53:01.443Z,22.14
2017-04-01T14:54:11.094Z,22.21
2017-04-01T14:55:20.850Z,22.18
2017-04-01T14:56:30.788Z,22.2
2017-04-01T14:57:40.076Z,22.21
2017-04-01T14:58:49.459Z,22.2
2017-04-01T14:59:59.397Z,22.35
2017-04-01T15:01:08.248Z,22.25
2017-04-01T15:02:18.478Z,22.31
2017-04-01T15:03:28.462Z,22.37
2017-04-01T15:04:38.059Z,22.27
2017-04-01T15:05:48.304Z,22.24